Pelican of London — MWAQ — position and weather

sailwx.info

Track history (hours):
 
Tides and Currents Weather Stations Pressure Air Temp Water Temp Dewpoint Dewpoint Depression Visibility Wind Speed Wind Dir Waves Ship Positions

Pelican of London

Ship's website: http://www.adventureundersail.com/

Last reported at 2020-Mar-21 03:01 UTC. Time now 2020-Mar-31 06:00 UTC.
Position N 39°05' W 027°49'.
Warning: this ship's position is 10 days out of date.

Length 35 m; draft 4 m.

Type: Sailing vessel. MMSI: 235057366.

Date/timePositionNaut miles runAvg speedWind from/ knotsBaromVisibWave heightAir tempDewpointWater temp
2020-Mar-21 03:01N 39°05' W 027°49'3 5.0
2020-Mar-21 02:30N 39°03' W 027°51'3 5.1
2020-Mar-21 02:00N 39°01' W 027°53'2 4.9
2020-Mar-21 01:30N 38°59' W 027°55'2 5.0
2020-Mar-21 01:00N 38°57' W 027°58'5 4.7
2020-Mar-21 00:00N 38°55' W 028°03'5 4.7
2020-Mar-20 23:00N 38°52' W 028°08'7 4.9
2020-Mar-20 21:30N 38°50' W 028°17'3 5.6
2020-Mar-20 21:00N 38°49' W 028°20'3 6.6
2020-Mar-20 20:30N 38°47' W 028°23'6 6.3
2020-Mar-20 19:30N 38°41' W 028°27'3 6.2
2020-Mar-20 19:00N 38°39' W 028°29'9 4.5
2020-Mar-20 16:58N 38°32' W 028°37'0 0.0
2020-Mar-20 15:58N 38°32' W 028°37'0 0.0
2020-Mar-20 14:28N 38°32' W 028°37'0 0.0
2020-Mar-20 13:58N 38°32' W 028°37'0 0.2
2020-Mar-20 13:01N 38°32' W 028°37'0 0.2
2020-Mar-20 11:01N 38°32' W 028°37'0 0.0
2020-Mar-20 09:01N 38°32' W 028°37'0 0.0
2020-Mar-20 08:30N 38°32' W 028°37'0 0.0
2020-Mar-20 06:00N 38°32' W 028°37'0 0.0
2020-Mar-20 05:30N 38°32' W 028°37'0 0.0
2020-Mar-20 03:00N 38°32' W 028°37'0 0.0
2020-Mar-20 02:30N 38°32' W 028°37'0 0.0
2020-Mar-20 00:00N 38°32' W 028°37'0 0.0
2020-Mar-19 23:00N 38°32' W 028°37'0 0.1
2020-Mar-19 22:30N 38°32' W 028°37'10 3.9
2020-Mar-19 20:00N 38°29' W 028°49'2 4.1
2020-Mar-19 19:30N 38°28' W 028°51'4 4.3
2020-Mar-19 18:30N 38°28' W 028°57'9 4.6
2020-Mar-19 16:31N 38°24' W 029°07'10 5.0
2020-Mar-19 14:31N 38°17' W 029°16'2 4.5
2020-Mar-19 14:01N 38°15' W 029°17'2 4.0
2020-Mar-19 13:31N 38°13' W 029°19'15 4.4
2020-Mar-19 10:00N 38°00' W 029°29'2 4.5
2020-Mar-19 09:30N 37°59' W 029°31'4 3.7
2020-Mar-19 08:30N 37°55' W 029°33'7 3.4
2020-Mar-19 06:29N 37°49' W 029°35'4 3.6
2020-Mar-19 05:23N 37°45' W 029°38'37 2.9
2020-Mar-18 17:00N 37°42' W 030°24'   040 / 241030.7 5.4 16.712.217.5
2020-Mar-12 17:00N 35°06' W 047°42'154 6.7 140 / 111029.2 5.4 19.212.619.4
2020-Mar-11 18:00N 34°42' W 050°48'   1030.910.8 19.210.521.1
Track history (hours):
 
Tides and Currents Weather Stations Pressure Air Temp Water Temp Dewpoint Dewpoint Depression Visibility Wind Speed Wind Dir Waves Ship Positions

Pelican of London

Ship's website: http://www.adventureundersail.com/

Last reported at 2020-Mar-21 03:01 UTC. Time now 2020-Mar-31 06:00 UTC.
Position N 39°05' W 027°49'.
Warning: this ship's position is 10 days out of date.

Length 35 m; draft 4 m.

Type: Sailing vessel. MMSI: 235057366.

Date/timePositionNaut miles runAvg speedWind from/ knotsBaromVisibWave heightAir tempDewpointWater temp
2020-Mar-21 03:01N 39°05' W 027°49'3 5.0
2020-Mar-21 02:30N 39°03' W 027°51'3 5.1
2020-Mar-21 02:00N 39°01' W 027°53'2 4.9
2020-Mar-21 01:30N 38°59' W 027°55'2 5.0
2020-Mar-21 01:00N 38°57' W 027°58'5 4.7
2020-Mar-21 00:00N 38°55' W 028°03'5 4.7
2020-Mar-20 23:00N 38°52' W 028°08'7 4.9
2020-Mar-20 21:30N 38°50' W 028°17'3 5.6
2020-Mar-20 21:00N 38°49' W 028°20'3 6.6
2020-Mar-20 20:30N 38°47' W 028°23'6 6.3
2020-Mar-20 19:30N 38°41' W 028°27'3 6.2
2020-Mar-20 19:00N 38°39' W 028°29'9 4.5
2020-Mar-20 16:58N 38°32' W 028°37'0 0.0
2020-Mar-20 15:58N 38°32' W 028°37'0 0.0
2020-Mar-20 14:28N 38°32' W 028°37'0 0.0
2020-Mar-20 13:58N 38°32' W 028°37'0 0.2
2020-Mar-20 13:01N 38°32' W 028°37'0 0.2
2020-Mar-20 11:01N 38°32' W 028°37'0 0.0
2020-Mar-20 09:01N 38°32' W 028°37'0 0.0
2020-Mar-20 08:30N 38°32' W 028°37'0 0.0
2020-Mar-20 06:00N 38°32' W 028°37'0 0.0
2020-Mar-20 05:30N 38°32' W 028°37'0 0.0
2020-Mar-20 03:00N 38°32' W 028°37'0 0.0
2020-Mar-20 02:30N 38°32' W 028°37'0 0.0
2020-Mar-20 00:00N 38°32' W 028°37'0 0.0
2020-Mar-19 23:00N 38°32' W 028°37'0 0.1
2020-Mar-19 22:30N 38°32' W 028°37'10 3.9
2020-Mar-19 20:00N 38°29' W 028°49'2 4.1
2020-Mar-19 19:30N 38°28' W 028°51'4 4.3
2020-Mar-19 18:30N 38°28' W 028°57'9 4.6
2020-Mar-19 16:31N 38°24' W 029°07'10 5.0
2020-Mar-19 14:31N 38°17' W 029°16'2 4.5
2020-Mar-19 14:01N 38°15' W 029°17'2 4.0
2020-Mar-19 13:31N 38°13' W 029°19'15 4.4
2020-Mar-19 10:00N 38°00' W 029°29'2 4.5
2020-Mar-19 09:30N 37°59' W 029°31'4 3.7
2020-Mar-19 08:30N 37°55' W 029°33'7 3.4
2020-Mar-19 06:29N 37°49' W 029°35'4 3.6
2020-Mar-19 05:23N 37°45' W 029°38'37 2.9
2020-Mar-18 17:00N 37°42' W 030°24'   040 / 241030.7 5.4 16.712.217.5
2020-Mar-12 17:00N 35°06' W 047°42'154 6.7 140 / 111029.2 5.4 19.212.619.4
2020-Mar-11 18:00N 34°42' W 050°48'   1030.910.8 19.210.521.1

Dump ship's entire track history